sensor_id;sensor_type;location;lat;lon;timestamp;pressure;altitude;pressure_sealevel;temperature;humidity
78623;BME280;67943;54.412;9.502;2023-12-28T00:02:53;100223.44;;;6.96;100.00
78623;BME280;67943;54.412;9.502;2023-12-28T00:07:56;100236.47;;;6.99;100.00
78623;BME280;67943;54.412;9.502;2023-12-28T00:12:58;100230.34;;;7.00;100.00
78623;BME280;67943;54.412;9.502;2023-12-28T00:17:59;100225.88;;;7.08;100.00
78623;BME280;67943;54.412;9.502;2023-12-28T00:23:02;100225.72;;;7.17;100.00
78623;BME280;67943;54.412;9.502;2023-12-28T00:28:05;100236.16;;;7.20;100.00
78623;BME280;67943;54.412;9.502;2023-12-28T00:33:07;100234.34;;;7.22;100.00
78623;BME280;67943;54.412;9.502;2023-12-28T00:38:09;100224.72;;;7.24;100.00
78623;BME280;67943;54.412;9.502;2023-12-28T00:43:11;100221.88;;;7.38;100.00
78623;BME280;67943;54.412;9.502;2023-12-28T00:48:12;100231.31;;;7.47;100.00
78623;BME280;67943;54.412;9.502;2023-12-28T00:53:15;100225.19;;;7.48;100.00
78623;BME280;67943;54.412;9.502;2023-12-28T00:58:17;100233.81;;;7.51;100.00
78623;BME280;67943;54.412;9.502;2023-12-28T01:03:18;100234.59;;;7.58;100.00
78623;BME280;67943;54.412;9.502;2023-12-28T01:08:21;100238.75;;;7.69;100.00
78623;BME280;67943;54.412;9.502;2023-12-28T01:13:22;100226.50;;;7.70;100.00
78623;BME280;67943;54.412;9.502;2023-12-28T01:18:24;100249.81;;;7.82;100.00
78623;BME280;67943;54.412;9.502;2023-12-28T01:23:27;100244.41;;;7.91;100.00
78623;BME280;67943;54.412;9.502;2023-12-28T01:28:28;100258.41;;;7.90;100.00
78623;BME280;67943;54.412;9.502;2023-12-28T01:33:30;100243.63;;;7.88;100.00
78623;BME280;67943;54.412;9.502;2023-12-28T01:38:33;100261.94;;;7.88;100.00
78623;BME280;67943;54.412;9.502;2023-12-28T01:43:34;100280.03;;;8.01;99.20
78623;BME280;67943;54.412;9.502;2023-12-28T01:48:36;100268.50;;;8.08;99.00
78623;BME280;67943;54.412;9.502;2023-12-28T01:53:39;100274.78;;;8.03;99.48
78623;BME280;67943;54.412;9.502;2023-12-28T01:58:43;100261.50;;;8.10;98.41
78623;BME280;67943;54.412;9.502;2023-12-28T02:03:46;100261.44;;;8.13;98.54
78623;BME280;67943;54.412;9.502;2023-12-28T02:08:49;100277.69;;;8.32;97.34
78623;BME280;67943;54.412;9.502;2023-12-28T02:13:50;100275.13;;;8.28;96.58
78623;BME280;67943;54.412;9.502;2023-12-28T02:18:54;100275.06;;;8.31;95.95
78623;BME280;67943;54.412;9.502;2023-12-28T02:23:59;100267.31;;;8.26;96.13
78623;BME280;67943;54.412;9.502;2023-12-28T02:29:02;100280.28;;;8.34;95.32
78623;BME280;67943;54.412;9.502;2023-12-28T02:34:06;100280.13;;;8.40;95.06
78623;BME280;67943;54.412;9.502;2023-12-28T02:39:11;100280.06;;;8.43;94.67
78623;BME280;67943;54.412;9.502;2023-12-28T02:44:15;100284.25;;;8.53;94.17
78623;BME280;67943;54.412;9.502;2023-12-28T02:49:17;100302.38;;;8.64;93.63
78623;BME280;67943;54.412;9.502;2023-12-28T02:54:18;100295.63;;;8.52;93.74
78623;BME280;67943;54.412;9.502;2023-12-28T02:59:21;100307.50;;;8.68;93.14
78623;BME280;67943;54.412;9.502;2023-12-28T03:04:23;100293.50;;;8.68;92.34
78623;BME280;67943;54.412;9.502;2023-12-28T03:09:24;100291.75;;;8.68;92.54
78623;BME280;67943;54.412;9.502;2023-12-28T03:14:27;100286.31;;;8.77;92.05
78623;BME280;67943;54.412;9.502;2023-12-28T03:19:29;100280.31;;;8.72;92.35
78623;BME280;67943;54.412;9.502;2023-12-28T03:24:30;100286.38;;;8.74;92.25
78623;BME280;67943;54.412;9.502;2023-12-28T03:29:33;100288.94;;;8.77;91.44
78623;BME280;67943;54.412;9.502;2023-12-28T03:34:35;100266.25;;;8.75;91.80
78623;BME280;67943;54.412;9.502;2023-12-28T03:39:36;100290.69;;;8.77;91.04
78623;BME280;67943;54.412;9.502;2023-12-28T03:44:39;100268.84;;;8.76;90.87
78623;BME280;67943;54.412;9.502;2023-12-28T03:49:41;100276.19;;;8.62;91.17
78623;BME280;67943;54.412;9.502;2023-12-28T03:54:42;100278.91;;;8.58;91.33
78623;BME280;67943;54.412;9.502;2023-12-28T03:59:45;100288.81;;;8.43;92.04
78623;BME280;67943;54.412;9.502;2023-12-28T04:04:47;100273.03;;;8.45;92.33
78623;BME280;67943;54.412;9.502;2023-12-28T04:09:49;100271.25;;;8.47;92.18
78623;BME280;67943;54.412;9.502;2023-12-28T04:14:52;100263.38;;;8.47;92.62
78623;BME280;67943;54.412;9.502;2023-12-28T04:19:53;100253.91;;;8.40;92.38
78623;BME280;67943;54.412;9.502;2023-12-28T04:24:55;100254.91;;;8.36;92.63
78623;BME280;67943;54.412;9.502;2023-12-28T04:29:58;100261.13;;;8.29;93.12
78623;BME280;67943;54.412;9.502;2023-12-28T04:34:59;100249.84;;;8.25;93.24
78623;BME280;67943;54.412;9.502;2023-12-28T04:40:01;100252.41;;;8.28;93.42
78623;BME280;67943;54.412;9.502;2023-12-28T04:45:06;100250.28;;;8.47;93.09
78623;BME280;67943;54.412;9.502;2023-12-28T04:50:08;100255.28;;;8.59;91.82
78623;BME280;67943;54.412;9.502;2023-12-28T04:55:10;100240.19;;;8.67;91.61
78623;BME280;67943;54.412;9.502;2023-12-28T05:00:14;100236.97;;;8.56;92.06
78623;BME280;67943;54.412;9.502;2023-12-28T05:05:15;100232.69;;;8.52;91.84
78623;BME280;67943;54.412;9.502;2023-12-28T05:10:17;100221.22;;;8.58;91.58
78623;BME280;67943;54.412;9.502;2023-12-28T05:15:20;100227.53;;;8.48;91.84
78623;BME280;67943;54.412;9.502;2023-12-28T05:20:22;100219.41;;;8.60;91.07
78623;BME280;67943;54.412;9.502;2023-12-28T05:25:23;100208.69;;;8.69;90.31
78623;BME280;67943;54.412;9.502;2023-12-28T05:30:26;100211.31;;;8.69;90.39
78623;BME280;67943;54.412;9.502;2023-12-28T05:35:27;100197.25;;;8.73;90.48
78623;BME280;67943;54.412;9.502;2023-12-28T05:40:29;100185.72;;;8.80;90.04
78623;BME280;67943;54.412;9.502;2023-12-28T05:45:32;100198.78;;;8.82;90.03
78623;BME280;67943;54.412;9.502;2023-12-28T05:50:33;100174.16;;;8.89;89.33
78623;BME280;67943;54.412;9.502;2023-12-28T05:55:35;100179.25;;;8.95;89.29
78623;BME280;67943;54.412;9.502;2023-12-28T06:00:37;100188.91;;;8.93;89.41
78623;BME280;67943;54.412;9.502;2023-12-28T06:05:40;100181.88;;;8.95;88.39
78623;BME280;67943;54.412;9.502;2023-12-28T06:10:41;100174.03;;;8.93;88.29
78623;BME280;67943;54.412;9.502;2023-12-28T06:15:44;100168.50;;;9.04;87.29
78623;BME280;67943;54.412;9.502;2023-12-28T06:20:46;100184.56;;;8.92;87.30
78623;BME280;67943;54.412;9.502;2023-12-28T06:25:47;100164.41;;;8.94;87.50
78623;BME280;67943;54.412;9.502;2023-12-28T06:30:50;100163.69;;;8.87;88.06
78623;BME280;67943;54.412;9.502;2023-12-28T06:35:52;100167.03;;;8.94;87.79
78623;BME280;67943;54.412;9.502;2023-12-28T06:40:54;100151.09;;;9.00;87.86
78623;BME280;67943;54.412;9.502;2023-12-28T06:45:57;100176.56;;;8.96;87.38
78623;BME280;67943;54.412;9.502;2023-12-28T06:50:58;100148.66;;;8.94;87.62
78623;BME280;67943;54.412;9.502;2023-12-28T06:56:00;100158.09;;;8.99;87.36
78623;BME280;67943;54.412;9.502;2023-12-28T07:01:04;100133.41;;;9.08;86.94
78623;BME280;67943;54.412;9.502;2023-12-28T07:06:07;100132.47;;;9.10;86.88
78623;BME280;67943;54.412;9.502;2023-12-28T07:11:09;100146.22;;;9.20;86.40
78623;BME280;67943;54.412;9.502;2023-12-28T07:16:12;100163.28;;;9.36;85.60
78623;BME280;67943;54.412;9.502;2023-12-28T07:21:14;100151.78;;;9.40;85.68
78623;BME280;67943;54.412;9.502;2023-12-28T07:26:15;100148.78;;;9.23;85.94
78623;BME280;67943;54.412;9.502;2023-12-28T07:31:25;100143.41;;;9.26;86.10
78623;BME280;67943;54.412;9.502;2023-12-28T07:36:26;100152.81;;;9.35;85.59
78623;BME280;67943;54.412;9.502;2023-12-28T07:41:28;100141.22;;;9.43;85.63
78623;BME280;67943;54.412;9.502;2023-12-28T07:46:31;100128.97;;;9.42;85.07
78623;BME280;67943;54.412;9.502;2023-12-28T07:51:32;100132.34;;;9.47;85.01
78623;BME280;67943;54.412;9.502;2023-12-28T07:56:34;100133.78;;;9.58;84.51
78623;BME280;67943;54.412;9.502;2023-12-28T08:01:37;100135.59;;;9.56;84.74
78623;BME280;67943;54.412;9.502;2023-12-28T08:06:38;100113.53;;;9.63;84.40
78623;BME280;67943;54.412;9.502;2023-12-28T08:11:40;100107.19;;;9.70;83.84
78623;BME280;67943;54.412;9.502;2023-12-28T08:16:43;100119.69;;;9.62;84.48
78623;BME280;67943;54.412;9.502;2023-12-28T08:21:45;100133.63;;;9.64;85.30
78623;BME280;67943;54.412;9.502;2023-12-28T08:26:46;100135.59;;;9.56;85.54
78623;BME280;67943;54.412;9.502;2023-12-28T08:31:49;100131.56;;;9.75;84.21
78623;BME280;67943;54.412;9.502;2023-12-28T08:36:50;100122.06;;;9.71;84.09
78623;BME280;67943;54.412;9.502;2023-12-28T08:41:52;100143.59;;;9.82;83.69
78623;BME280;67943;54.412;9.502;2023-12-28T08:46:55;100133.00;;;9.85;83.03
78623;BME280;67943;54.412;9.502;2023-12-28T08:51:57;100131.06;;;9.92;82.82
78623;BME280;67943;54.412;9.502;2023-12-28T08:56:58;100127.41;;;9.97;82.76
78623;BME280;67943;54.412;9.502;2023-12-28T09:02:01;100130.66;;;10.05;82.22
78623;BME280;67943;54.412;9.502;2023-12-28T09:07:03;100126.28;;;10.06;82.23
78623;BME280;67943;54.412;9.502;2023-12-28T09:12:05;100135.66;;;10.13;82.15
78623;BME280;67943;54.412;9.502;2023-12-28T09:17:08;100154.56;;;10.27;81.72
78623;BME280;67943;54.412;9.502;2023-12-28T09:22:09;100137.88;;;10.28;81.33
78623;BME280;67943;54.412;9.502;2023-12-28T09:27:11;100172.75;;;10.35;80.92
78623;BME280;67943;54.412;9.502;2023-12-28T09:32:13;100141.31;;;10.30;81.29
78623;BME280;67943;54.412;9.502;2023-12-28T09:37:16;100147.66;;;10.23;84.48
78623;BME280;67943;54.412;9.502;2023-12-28T09:42:25;100160.41;;;10.07;85.31
78623;BME280;67943;54.412;9.502;2023-12-28T09:47:31;100176.16;;;10.07;84.44
78623;BME280;67943;54.412;9.502;2023-12-28T09:52:33;100194.22;;;10.18;83.74
78623;BME280;67943;54.412;9.502;2023-12-28T09:57:35;100193.84;;;10.02;84.22
78623;BME280;67943;54.412;9.502;2023-12-28T10:02:38;100197.28;;;10.04;86.15
78623;BME280;67943;54.412;9.502;2023-12-28T10:07:42;100189.34;;;10.06;86.53
78623;BME280;67943;54.412;9.502;2023-12-28T10:12:45;100199.44;;;9.90;88.25
78623;BME280;67943;54.412;9.502;2023-12-28T10:17:48;100183.03;;;10.11;85.94
78623;BME280;67943;54.412;9.502;2023-12-28T10:22:50;100178.13;;;10.30;83.20
78623;BME280;67943;54.412;9.502;2023-12-28T10:27:52;100200.41;;;10.46;81.93
78623;BME280;67943;54.412;9.502;2023-12-28T10:32:56;100208.84;;;10.58;80.96
78623;BME280;67943;54.412;9.502;2023-12-28T10:37:59;100182.34;;;10.36;80.28
78623;BME280;67943;54.412;9.502;2023-12-28T10:43:05;100214.09;;;10.30;81.62
78623;BME280;67943;54.412;9.502;2023-12-28T10:48:10;100214.09;;;10.30;82.90
78623;BME280;67943;54.412;9.502;2023-12-28T10:53:21;100222.69;;;10.35;82.86
78623;BME280;67943;54.412;9.502;2023-12-28T10:58:32;100207.56;;;10.41;82.54
78623;BME280;67943;54.412;9.502;2023-12-28T11:03:37;100212.88;;;10.40;82.19
78623;BME280;67943;54.412;9.502;2023-12-28T11:08:42;100209.50;;;10.36;82.30
78623;BME280;67943;54.412;9.502;2023-12-28T11:13:46;100225.47;;;10.30;82.81
78623;BME280;67943;54.412;9.502;2023-12-28T11:18:52;100226.41;;;10.28;85.19
78623;BME280;67943;54.412;9.502;2023-12-28T11:23:54;100229.16;;;10.23;87.39
78623;BME280;67943;54.412;9.502;2023-12-28T11:29:00;100233.91;;;10.10;87.82
78623;BME280;67943;54.412;9.502;2023-12-28T11:34:05;100239.59;;;9.95;89.10
78623;BME280;67943;54.412;9.502;2023-12-28T11:39:07;100246.47;;;9.99;88.66
78623;BME280;67943;54.412;9.502;2023-12-28T11:44:10;100233.84;;;10.12;87.35
78623;BME280;67943;54.412;9.502;2023-12-28T11:49:13;100224.06;;;10.17;86.03
78623;BME280;67943;54.412;9.502;2023-12-28T11:54:15;100232.88;;;10.14;87.34
78623;BME280;67943;54.412;9.502;2023-12-28T11:59:16;100224.34;;;9.77;92.24
78623;BME280;67943;54.412;9.502;2023-12-28T12:04:20;100226.41;;;9.64;96.30
78623;BME280;67943;54.412;9.502;2023-12-28T12:09:22;100212.88;;;9.79;95.49
78623;BME280;67943;54.412;9.502;2023-12-28T12:14:24;100233.66;;;9.87;93.19
78623;BME280;67943;54.412;9.502;2023-12-28T12:19:27;100215.56;;;9.78;92.61
78623;BME280;67943;54.412;9.502;2023-12-28T12:24:31;100211.41;;;10.00;90.99
78623;BME280;67943;54.412;9.502;2023-12-28T12:29:34;100211.75;;;9.88;91.06
78623;BME280;67943;54.412;9.502;2023-12-28T12:34:38;100232.47;;;9.99;91.10
78623;BME280;67943;54.412;9.502;2023-12-28T12:39:40;100234.94;;;10.05;90.35
78623;BME280;67943;54.412;9.502;2023-12-28T12:44:42;100235.94;;;10.01;90.46
78623;BME280;67943;54.412;9.502;2023-12-28T12:49:45;100245.63;;;9.99;90.31
78623;BME280;67943;54.412;9.502;2023-12-28T12:54:53;100226.22;;;10.03;90.00
78623;BME280;67943;54.412;9.502;2023-12-28T12:59:55;100233.03;;;10.10;89.33
78623;BME280;67943;54.412;9.502;2023-12-28T13:04:58;100251.50;;;10.08;89.85
78623;BME280;67943;54.412;9.502;2023-12-28T13:10:00;100259.69;;;9.96;90.50
78623;BME280;67943;54.412;9.502;2023-12-28T13:15:01;100266.19;;;9.83;91.55
78623;BME280;67943;54.412;9.502;2023-12-28T13:20:05;100263.31;;;9.92;91.56
78623;BME280;67943;54.412;9.502;2023-12-28T13:25:08;100282.06;;;9.80;91.33
78623;BME280;67943;54.412;9.502;2023-12-28T13:30:10;100276.38;;;9.95;90.56
78623;BME280;67943;54.412;9.502;2023-12-28T13:35:13;100278.03;;;9.99;89.68
78623;BME280;67943;54.412;9.502;2023-12-28T13:40:15;100290.88;;;10.10;89.05
78623;BME280;67943;54.412;9.502;2023-12-28T13:45:16;100272.50;;;10.08;89.01
78623;BME280;67943;54.412;9.502;2023-12-28T13:50:20;100275.31;;;10.02;88.60
78623;BME280;67943;54.412;9.502;2023-12-28T13:55:21;100276.13;;;10.04;88.65
78623;BME280;67943;54.412;9.502;2023-12-28T14:00:23;100265.69;;;10.01;88.38
78623;BME280;67943;54.412;9.502;2023-12-28T14:05:27;100266.44;;;10.06;87.72
78623;BME280;67943;54.412;9.502;2023-12-28T14:10:28;100286.47;;;10.10;87.27
78623;BME280;67943;54.412;9.502;2023-12-28T14:15:30;100284.75;;;10.09;87.16
78623;BME280;67943;54.412;9.502;2023-12-28T14:20:33;100279.22;;;10.19;86.63
78623;BME280;67943;54.412;9.502;2023-12-28T14:25:35;100272.41;;;10.11;86.73
78623;BME280;67943;54.412;9.502;2023-12-28T14:30:37;100269.38;;;10.27;85.37
78623;BME280;67943;54.412;9.502;2023-12-28T14:35:41;100279.25;;;10.17;86.17
78623;BME280;67943;54.412;9.502;2023-12-28T14:40:42;100276.00;;;10.09;85.93
78623;BME280;67943;54.412;9.502;2023-12-28T14:45:44;100272.47;;;10.10;86.14
78623;BME280;67943;54.412;9.502;2023-12-28T14:50:48;100275.31;;;10.02;86.70
78623;BME280;67943;54.412;9.502;2023-12-28T14:55:49;100292.69;;;10.08;86.37
78623;BME280;67943;54.412;9.502;2023-12-28T15:00:51;100291.66;;;10.12;86.54
78623;BME280;67943;54.412;9.502;2023-12-28T15:05:55;100279.16;;;9.89;87.29
78623;BME280;67943;54.412;9.502;2023-12-28T15:10:58;100281.63;;;9.95;87.11
78623;BME280;67943;54.412;9.502;2023-12-28T15:16:00;100297.47;;;9.92;86.90
78623;BME280;67943;54.412;9.502;2023-12-28T15:21:06;100287.94;;;9.88;87.35
78623;BME280;67943;54.412;9.502;2023-12-28T15:26:07;100280.66;;;9.99;87.41
78623;BME280;67943;54.412;9.502;2023-12-28T15:31:09;100282.56;;;9.93;88.58
78623;BME280;67943;54.412;9.502;2023-12-28T15:36:12;100280.97;;;9.87;88.68
78623;BME280;67943;54.412;9.502;2023-12-28T15:41:13;100263.47;;;9.86;88.32
78623;BME280;67943;54.412;9.502;2023-12-28T15:46:15;100278.41;;;9.84;88.38
78623;BME280;67943;54.412;9.502;2023-12-28T15:51:18;100267.91;;;9.84;88.76
78623;BME280;67943;54.412;9.502;2023-12-28T15:56:19;100260.78;;;9.89;88.02
78623;BME280;67943;54.412;9.502;2023-12-28T16:01:21;100276.84;;;9.78;88.23
78623;BME280;67943;54.412;9.502;2023-12-28T16:06:23;100262.84;;;9.78;89.63
78623;BME280;67943;54.412;9.502;2023-12-28T16:11:25;100262.66;;;9.84;88.80
78623;BME280;67943;54.412;9.502;2023-12-28T16:16:27;100267.88;;;9.86;86.85
78623;BME280;67943;54.412;9.502;2023-12-28T16:21:30;100264.38;;;9.85;86.23
78623;BME280;67943;54.412;9.502;2023-12-28T16:26:32;100255.66;;;9.83;85.49
78623;BME280;67943;54.412;9.502;2023-12-28T16:31:35;100240.47;;;9.94;84.52
78623;BME280;67943;54.412;9.502;2023-12-28T16:36:38;100243.88;;;9.98;83.95
78623;BME280;67943;54.412;9.502;2023-12-28T16:41:40;100250.72;;;10.05;83.65
78623;BME280;67943;54.412;9.502;2023-12-28T16:46:43;100250.06;;;9.97;83.41
78623;BME280;67943;54.412;9.502;2023-12-28T16:51:47;100246.13;;;10.11;83.22
78623;BME280;67943;54.412;9.502;2023-12-28T16:56:49;100255.03;;;10.07;83.00
78623;BME280;67943;54.412;9.502;2023-12-28T17:01:50;100260.19;;;10.10;82.89
78623;BME280;67943;54.412;9.502;2023-12-28T17:06:53;100248.75;;;10.11;82.75
78623;BME280;67943;54.412;9.502;2023-12-28T17:12:03;100255.03;;;10.07;82.73
78623;BME280;67943;54.412;9.502;2023-12-28T17:17:09;100238.38;;;10.07;83.06
78623;BME280;67943;54.412;9.502;2023-12-28T17:22:13;100236.81;;;10.00;83.64
78623;BME280;67943;54.412;9.502;2023-12-28T17:27:19;100246.47;;;9.99;84.31
78623;BME280;67943;54.412;9.502;2023-12-28T17:32:26;100235.97;;;9.99;84.98
78623;BME280;67943;54.412;9.502;2023-12-28T17:37:29;100231.31;;;9.78;86.32
78623;BME280;67943;54.412;9.502;2023-12-28T17:42:33;100232.75;;;9.88;86.06
78623;BME280;67943;54.412;9.502;2023-12-28T17:47:44;100209.63;;;9.70;86.61
78623;BME280;67943;54.412;9.502;2023-12-28T17:52:51;100217.44;;;9.73;86.36
78623;BME280;67943;54.412;9.502;2023-12-28T17:57:52;100231.41;;;9.75;86.50
78623;BME280;67943;54.412;9.502;2023-12-28T18:02:54;100214.78;;;9.74;86.15
78623;BME280;67943;54.412;9.502;2023-12-28T18:07:57;100215.72;;;9.72;85.90
78623;BME280;67943;54.412;9.502;2023-12-28T18:12:58;100203.25;;;9.80;85.52
78623;BME280;67943;54.412;9.502;2023-12-28T18:18:00;100217.34;;;9.76;85.27
78623;BME280;67943;54.412;9.502;2023-12-28T18:23:03;100189.44;;;9.72;85.22
78623;BME280;67943;54.412;9.502;2023-12-28T18:28:05;100189.09;;;9.84;84.59
78623;BME280;67943;54.412;9.502;2023-12-28T18:33:06;100188.41;;;9.77;84.26
78623;BME280;67943;54.412;9.502;2023-12-28T18:38:09;100184.88;;;9.78;83.94
78623;BME280;67943;54.412;9.502;2023-12-28T18:43:11;100175.81;;;9.89;82.93
78623;BME280;67943;54.412;9.502;2023-12-28T18:48:13;100163.50;;;9.91;82.71
78623;BME280;67943;54.412;9.502;2023-12-28T18:53:16;100156.06;;;9.75;83.16
78623;BME280;67943;54.412;9.502;2023-12-28T18:58:17;100149.91;;;9.76;82.31
78623;BME280;67943;54.412;9.502;2023-12-28T19:03:19;100133.81;;;9.87;81.74
78623;BME280;67943;54.412;9.502;2023-12-28T19:08:22;100128.00;;;9.77;81.81
78623;BME280;67943;54.412;9.502;2023-12-28T19:13:23;100144.28;;;9.89;81.33
78623;BME280;67943;54.412;9.502;2023-12-28T19:18:25;100119.59;;;9.94;81.02
78623;BME280;67943;54.412;9.502;2023-12-28T19:23:28;100123.06;;;9.96;81.26
78623;BME280;67943;54.412;9.502;2023-12-28T19:28:29;100131.06;;;9.92;81.46
78623;BME280;67943;54.412;9.502;2023-12-28T19:33:31;100095.09;;;9.94;80.70
78623;BME280;67943;54.412;9.502;2023-12-28T19:38:34;100094.72;;;10.06;80.69
78623;BME280;67943;54.412;9.502;2023-12-28T19:43:35;100090.25;;;10.09;80.68
78623;BME280;67943;54.412;9.502;2023-12-28T19:48:37;100090.34;;;10.06;80.44
78623;BME280;67943;54.412;9.502;2023-12-28T19:53:39;100090.38;;;10.05;81.22
78623;BME280;67943;54.412;9.502;2023-12-28T19:58:41;100058.97;;;10.00;81.14
78623;BME280;67943;54.412;9.502;2023-12-28T20:03:42;100063.84;;;10.12;80.68
78623;BME280;67943;54.412;9.502;2023-12-28T20:08:45;100050.09;;;10.04;80.82
78623;BME280;67943;54.412;9.502;2023-12-28T20:13:47;100054.19;;;10.13;80.24
78623;BME280;67943;54.412;9.502;2023-12-28T20:18:49;100056.97;;;10.08;80.26
78623;BME280;67943;54.412;9.502;2023-12-28T20:23:52;100069.44;;;10.02;82.15
78623;BME280;67943;54.412;9.502;2023-12-28T20:28:53;100069.84;;;9.88;84.61
78623;BME280;67943;54.412;9.502;2023-12-28T20:33:55;100056.47;;;9.68;88.23
78623;BME280;67943;54.412;9.502;2023-12-28T20:38:58;100046.50;;;9.50;91.38
78623;BME280;67943;54.412;9.502;2023-12-28T20:43:59;100042.28;;;9.44;90.64
78623;BME280;67943;54.412;9.502;2023-12-28T20:49:01;100030.25;;;9.37;92.32
78623;BME280;67943;54.412;9.502;2023-12-28T20:54:04;100039.81;;;9.39;90.79
78623;BME280;67943;54.412;9.502;2023-12-28T20:59:06;100038.06;;;9.38;89.70
78623;BME280;67943;54.412;9.502;2023-12-28T21:04:07;100028.94;;;9.52;89.05
78623;BME280;67943;54.412;9.502;2023-12-28T21:09:10;100008.03;;;9.48;88.75
78623;BME280;67943;54.412;9.502;2023-12-28T21:14:12;100025.13;;;9.62;87.58
78623;BME280;67943;54.412;9.502;2023-12-28T21:19:14;100006.22;;;9.51;87.79
78623;BME280;67943;54.412;9.502;2023-12-28T21:24:18;100011.19;;;9.60;86.53
78623;BME280;67943;54.412;9.502;2023-12-28T21:29:19;100018.19;;;9.59;86.45
78623;BME280;67943;54.412;9.502;2023-12-28T21:34:21;100004.94;;;9.64;86.18
78623;BME280;67943;54.412;9.502;2023-12-28T21:39:23;100018.06;;;9.64;86.13
78623;BME280;67943;54.412;9.502;2023-12-28T21:44:25;99992.19;;;9.52;86.28
78623;BME280;67943;54.412;9.502;2023-12-28T21:49:26;100011.56;;;9.47;86.67
78623;BME280;67943;54.412;9.502;2023-12-28T21:54:29;99997.44;;;9.52;86.98
78623;BME280;67943;54.412;9.502;2023-12-28T21:59:31;99989.78;;;9.44;88.50
78623;BME280;67943;54.412;9.502;2023-12-28T22:04:32;99990.41;;;9.52;88.55
78623;BME280;67943;54.412;9.502;2023-12-28T22:09:35;99956.59;;;9.41;89.01
78623;BME280;67943;54.412;9.502;2023-12-28T22:14:37;99980.22;;;9.41;88.78
78623;BME280;67943;54.412;9.502;2023-12-28T22:19:38;99956.84;;;9.62;87.39
78623;BME280;67943;54.412;9.502;2023-12-28T22:24:41;99955.25;;;9.56;87.86
78623;BME280;67943;54.412;9.502;2023-12-28T22:29:43;99970.53;;;9.43;88.94
78623;BME280;67943;54.412;9.502;2023-12-28T22:34:44;99954.16;;;9.35;92.09
78623;BME280;67943;54.412;9.502;2023-12-28T22:39:47;99921.03;;;9.31;92.18
78623;BME280;67943;54.412;9.502;2023-12-28T22:44:49;99927.19;;;9.30;92.30
78623;BME280;67943;54.412;9.502;2023-12-28T22:49:51;99917.53;;;9.31;92.45
78623;BME280;67943;54.412;9.502;2023-12-28T22:54:54;99891.72;;;9.45;93.10
78623;BME280;67943;54.412;9.502;2023-12-28T22:59:55;99963.50;;;9.16;94.66
78623;BME280;67943;54.412;9.502;2023-12-28T23:04:57;99972.47;;;8.76;85.59
78623;BME280;67943;54.412;9.502;2023-12-28T23:10:01;99962.94;;;8.06;85.87
78623;BME280;67943;54.412;9.502;2023-12-28T23:15:03;99952.66;;;7.98;88.44
78623;BME280;67943;54.412;9.502;2023-12-28T23:20:05;99978.78;;;7.63;94.90
78623;BME280;67943;54.412;9.502;2023-12-28T23:25:08;99958.72;;;7.63;97.66
78623;BME280;67943;54.412;9.502;2023-12-28T23:30:10;99970.44;;;7.84;98.28
78623;BME280;67943;54.412;9.502;2023-12-28T23:35:12;99950.91;;;7.97;98.20
78623;BME280;67943;54.412;9.502;2023-12-28T23:40:15;99938.22;;;7.80;100.00
78623;BME280;67943;54.412;9.502;2023-12-28T23:45:17;99925.56;;;7.99;100.00
78623;BME280;67943;54.412;9.502;2023-12-28T23:50:19;99903.75;;;8.33;100.00
78623;BME280;67943;54.412;9.502;2023-12-28T23:55:21;99897.09;;;8.52;100.00
